Time;durP1;ratioP1;P1;durP2;ratioP2;P2;SDS_P1;SDS_P2;PMS_P1;PMS_P2;Temp;Humidity;BMP_temperature;BMP_pressure;BME280_temperature;BME280_humidity;BME280_pressure;Samples;Min_cycle;Max_cycle;Signal;HPM_P1;HPM_P2
2023/05/31 00:01:12;;;;;;;4.25;2.92;;;22.80;96.70;;;;;;5102509;28;20121;-70
2023/05/31 00:03:43;;;;;;;4.43;3.20;;;22.80;96.70;;;;;;5101965;27;20063;-70
2023/05/31 00:06:11;;;;;;;5.88;3.22;;;22.80;96.70;;;;;;5102401;27;20712;-70
2023/05/31 00:08:41;;;;;;;4.57;2.70;;;22.80;96.70;;;;;;5105239;27;20035;-70
2023/05/31 00:11:10;;;;;;;3.85;3.08;;;22.70;96.70;;;;;;5101159;27;20063;-70
2023/05/31 00:13:38;;;;;;;7.07;2.50;;;22.50;96.70;;;;;;5101583;27;20063;-70
2023/05/31 00:16:23;;;;;;;3.95;2.55;;;22.40;96.70;;;;;;5027951;28;20057;-70
2023/05/31 00:19:11;;;;;;;3.95;2.83;;;22.50;96.70;;;;;;5045948;28;20122;-70
2023/05/31 00:21:39;;;;;;;3.50;2.80;;;22.60;96.70;;;;;;5023322;28;20057;-70
2023/05/31 00:24:09;;;;;;;4.10;2.80;;;22.60;96.70;;;;;;5041050;28;20506;-70
2023/05/31 00:26:37;;;;;;;3.97;2.75;;;22.50;96.70;;;;;;5037730;28;20481;-70
2023/05/31 00:29:05;;;;;;;4.13;2.90;;;22.40;96.70;;;;;;5040682;28;20087;-70
2023/05/31 00:31:34;;;;;;;6.50;2.92;;;22.40;96.70;;;;;;5042062;28;20077;-70
2023/05/31 00:34:02;;;;;;;3.72;2.72;;;22.30;96.70;;;;;;5025977;28;20095;-70
2023/05/31 00:36:31;;;;;;;4.85;3.10;;;22.20;96.70;;;;;;5043396;28;20305;-70
2023/05/31 00:38:59;;;;;;;4.85;2.83;;;22.10;96.70;;;;;;5039409;28;20067;-70
2023/05/31 00:41:29;;;;;;;5.45;3.22;;;22.20;96.70;;;;;;5039262;28;20119;-70
2023/05/31 00:43:57;;;;;;;4.70;2.97;;;22.10;96.70;;;;;;5023451;28;20041;-70
2023/05/31 00:46:28;;;;;;;4.43;2.95;;;22.10;96.70;;;;;;5033466;28;20044;-70
2023/05/31 00:48:57;;;;;;;6.78;3.17;;;22.10;96.70;;;;;;5105882;27;20488;-70
2023/05/31 00:51:27;;;;;;;6.93;3.20;;;22.10;96.70;;;;;;5101888;27;20048;-70
2023/05/31 00:53:57;;;;;;;3.30;2.80;;;22.10;96.70;;;;;;5097650;27;20074;-70
2023/05/31 00:56:25;;;;;;;4.97;2.95;;;22.00;96.70;;;;;;5100992;28;20048;-70
2023/05/31 00:58:56;;;;;;;5.70;3.05;;;22.10;96.70;;;;;;5098457;27;20081;-70
2023/05/31 01:01:32;;;;;;;5.07;2.97;;;22.10;96.70;;;;;;5096546;27;20048;-70
2023/05/31 01:04:02;;;;;;;5.20;2.95;;;21.90;96.70;;;;;;5099610;27;20048;-70
2023/05/31 01:06:34;;;;;;;4.22;2.95;;;21.90;96.70;;;;;;5096545;27;20125;-70
2023/05/31 01:09:05;;;;;;;4.70;2.92;;;22.00;96.70;;;;;;5087124;28;20047;-70
2023/05/31 01:11:47;;;;;;;4.72;3.20;;;22.00;96.70;;;;;;5108031;27;20052;-70
2023/05/31 01:14:27;;;;;;;4.45;2.65;;;22.00;96.70;;;;;;5084030;27;20154;-70
2023/05/31 01:17:13;;;;;;;4.80;3.00;;;22.10;96.70;;;;;;5095262;27;20112;-70
2023/05/31 01:19:48;;;;;;;4.75;3.20;;;22.20;96.70;;;;;;5091079;27;20043;-70
2023/05/31 01:22:28;;;;;;;5.53;3.10;;;22.10;96.70;;;;;;5099665;27;20051;-70
2023/05/31 01:25:13;;;;;;;4.60;2.88;;;22.00;96.70;;;;;;5086595;27;20108;-71
2023/05/31 01:27:45;;;;;;;3.53;2.88;;;21.90;96.70;;;;;;5107908;27;20052;-70
2023/05/31 01:30:16;;;;;;;6.05;3.05;;;21.90;96.70;;;;;;5100285;28;20122;-70
2023/05/31 01:32:45;;;;;;;4.03;2.80;;;21.90;96.70;;;;;;5100219;27;20469;-70
2023/05/31 01:35:13;;;;;;;4.45;3.40;;;21.80;96.70;;;;;;5101062;27;20035;-70
2023/05/31 01:37:45;;;;;;;3.83;2.65;;;21.90;96.70;;;;;;5107073;27;20036;-70
2023/05/31 01:40:15;;;;;;;3.17;2.85;;;21.90;96.70;;;;;;5095855;27;20385;-70
2023/05/31 01:42:46;;;;;;;4.00;3.20;;;22.10;96.70;;;;;;5091216;27;20036;-70
2023/05/31 01:45:16;;;;;;;3.35;2.67;;;22.00;96.70;;;;;;5094182;27;20056;-70
2023/05/31 01:47:47;;;;;;;3.92;3.00;;;22.00;96.70;;;;;;5094258;27;20125;-70
2023/05/31 01:50:18;;;;;;;7.28;3.10;;;22.00;96.70;;;;;;5086991;27;20064;-70
2023/05/31 01:52:46;;;;;;;6.22;2.75;;;22.00;96.70;;;;;;5092993;27;20509;-70
2023/05/31 01:55:14;;;;;;;4.22;2.78;;;22.00;96.70;;;;;;5089034;27;20035;-70
2023/05/31 01:57:45;;;;;;;6.15;3.38;;;21.90;96.70;;;;;;5094297;27;20066;-70
2023/05/31 02:00:14;;;;;;;5.38;3.55;;;21.90;96.70;;;;;;5092053;28;20043;-70
2023/05/31 02:02:42;;;;;;;6.13;2.85;;;21.90;96.70;;;;;;5097383;27;20035;-70
2023/05/31 02:05:12;;;;;;;4.28;2.58;;;21.70;96.70;;;;;;5095274;27;20044;-70
2023/05/31 02:07:42;;;;;;;5.32;3.20;;;21.60;96.70;;;;;;5100882;28;20096;-71
2023/05/31 02:10:11;;;;;;;5.03;3.05;;;21.60;96.70;;;;;;5100399;28;20039;-70
2023/05/31 02:12:40;;;;;;;4.03;3.05;;;21.50;96.70;;;;;;5098880;27;20051;-70
2023/05/31 02:15:13;;;;;;;5.05;3.33;;;21.50;96.70;;;;;;5097245;27;20174;-70
2023/05/31 02:17:43;;;;;;;3.78;3.10;;;21.50;96.70;;;;;;5097859;27;20054;-70
2023/05/31 02:20:12;;;;;;;4.90;3.17;;;21.50;96.70;;;;;;5103364;27;20047;-70
2023/05/31 02:22:41;;;;;;;5.07;2.72;;;21.60;96.70;;;;;;5080987;28;20478;-70
2023/05/31 02:25:12;;;;;;;3.45;2.70;;;21.50;96.70;;;;;;5093686;27;20039;-70
2023/05/31 02:27:41;;;;;;;3.97;2.80;;;21.40;96.70;;;;;;5104373;27;20094;-70
2023/05/31 02:30:11;;;;;;;5.00;3.20;;;21.40;96.70;;;;;;5096085;27;20112;-70
2023/05/31 02:32:39;;;;;;;3.92;3.22;;;21.40;96.70;;;;;;5104758;27;20761;-70
2023/05/31 02:35:10;;;;;;;3.70;2.80;;;21.40;96.70;;;;;;5093506;27;20069;-70
2023/05/31 02:37:39;;;;;;;4.03;3.20;;;21.30;96.70;;;;;;5099038;27;20044;-70
2023/05/31 02:40:08;;;;;;;5.38;3.22;;;21.30;96.70;;;;;;5103553;27;20494;-71
2023/05/31 02:42:38;;;;;;;4.13;2.90;;;21.30;96.70;;;;;;5084803;28;20127;-70
2023/05/31 02:45:07;;;;;;;3.53;3.20;;;21.30;96.70;;;;;;5097014;28;20063;-70
2023/05/31 02:47:38;;;;;;;5.93;3.30;;;21.40;96.70;;;;;;5098977;28;20044;-70
2023/05/31 02:50:08;;;;;;;4.57;3.50;;;21.40;96.70;;;;;;5097678;27;20048;-70
2023/05/31 02:52:41;;;;;;;4.50;2.80;;;21.40;96.70;;;;;;5098772;28;20127;-70
2023/05/31 02:55:39;;;;;;;3.63;2.97;;;21.30;96.70;;;;;;5087013;28;20446;-70
2023/05/31 02:58:19;;;;;;;4.55;3.10;;;21.40;96.70;;;;;;5099401;28;20059;-71
2023/05/31 03:01:07;;;;;;;3.33;2.83;;;21.30;96.70;;;;;;5099149;28;20040;-70
2023/05/31 03:03:43;;;;;;;5.50;3.40;;;21.20;96.70;;;;;;5097811;28;20451;-70
2023/05/31 03:06:23;;;;;;;4.40;3.35;;;21.30;96.70;;;;;;5097734;28;20609;-70
2023/05/31 03:08:51;;;;;;;4.57;2.80;;;21.30;96.70;;;;;;5096892;28;20075;-70
2023/05/31 03:11:20;;;;;;;4.82;3.20;;;21.20;96.70;;;;;;5095116;28;20055;-70
2023/05/31 03:13:48;;;;;;;3.53;3.13;;;21.20;96.70;;;;;;5097822;28;20101;-70
2023/05/31 03:16:20;;;;;;;3.83;2.70;;;21.10;96.70;;;;;;5099905;28;20706;-70
2023/05/31 03:18:50;;;;;;;5.45;3.22;;;21.10;96.70;;;;;;5085956;28;20164;-70
2023/05/31 03:21:18;;;;;;;4.50;3.20;;;21.10;96.70;;;;;;5078631;28;20050;-70
2023/05/31 03:23:48;;;;;;;5.32;3.15;;;20.70;96.70;;;;;;5095437;28;20043;-70
2023/05/31 03:26:16;;;;;;;4.75;3.90;;;20.40;96.70;;;;;;5093137;28;20076;-70
2023/05/31 03:28:46;;;;;;;5.28;3.80;;;20.40;96.70;;;;;;5095276;28;20446;-70
2023/05/31 03:31:18;;;;;;;4.97;3.75;;;20.40;96.70;;;;;;5096312;28;20058;-70
2023/05/31 03:33:47;;;;;;;5.05;3.28;;;20.60;96.70;;;;;;5096685;27;20040;-70
2023/05/31 03:36:16;;;;;;;5.10;3.83;;;20.50;96.70;;;;;;5100256;27;20062;-70
2023/05/31 03:38:45;;;;;;;6.32;3.60;;;20.60;96.70;;;;;;5096841;27;20048;-70
2023/05/31 03:41:14;;;;;;;5.60;3.92;;;20.80;96.70;;;;;;5083760;28;20127;-70
2023/05/31 03:43:42;;;;;;;5.60;3.60;;;21.00;96.70;;;;;;5102517;28;20146;-70
2023/05/31 03:46:10;;;;;;;4.80;3.55;;;21.10;96.70;;;;;;5095225;28;20035;-70
2023/05/31 03:48:38;;;;;;;4.38;3.70;;;21.00;96.70;;;;;;5100914;27;20047;-70
2023/05/31 03:51:06;;;;;;;4.50;3.65;;;20.80;96.70;;;;;;5101593;27;20047;-69
2023/05/31 03:53:36;;;;;;;4.80;3.17;;;20.80;96.70;;;;;;5098114;27;20051;-70
2023/05/31 03:56:04;;;;;;;4.45;3.60;;;20.80;96.70;;;;;;5102466;27;20462;-70
2023/05/31 03:58:32;;;;;;;4.00;3.60;;;20.90;96.70;;;;;;5083453;27;20100;-70
2023/05/31 04:01:02;;;;;;;4.72;3.80;;;20.90;96.70;;;;;;5101834;28;20052;-70
2023/05/31 04:03:30;;;;;;;4.60;3.45;;;20.90;96.70;;;;;;5096625;28;20117;-69
2023/05/31 04:05:59;;;;;;;7.10;3.83;;;21.00;96.70;;;;;;5098917;27;20035;-69
2023/05/31 04:08:27;;;;;;;4.07;3.50;;;21.00;96.70;;;;;;5085107;27;20043;-70
2023/05/31 04:10:56;;;;;;;4.78;3.70;;;21.10;96.70;;;;;;5098359;28;20123;-69
2023/05/31 04:13:25;;;;;;;4.10;3.70;;;21.20;96.70;;;;;;5104402;27;20114;-70
2023/05/31 04:15:53;;;;;;;4.95;3.90;;;21.20;96.70;;;;;;5102837;27;20043;-70
2023/05/31 04:18:21;;;;;;;6.35;3.88;;;21.00;96.70;;;;;;5094721;27;20054;-69
2023/05/31 04:20:49;;;;;;;5.90;3.63;;;21.00;96.70;;;;;;5081370;28;20045;-68
2023/05/31 04:23:18;;;;;;;6.15;3.72;;;21.20;96.70;;;;;;5099155;27;20501;-70
2023/05/31 04:25:47;;;;;;;4.13;3.63;;;21.20;96.70;;;;;;5079142;27;20036;-70
2023/05/31 04:28:18;;;;;;;5.85;3.70;;;21.20;96.70;;;;;;5097544;27;20047;-70
2023/05/31 04:30:47;;;;;;;5.30;4.13;;;21.10;96.70;;;;;;5096370;27;20121;-70
2023/05/31 04:33:17;;;;;;;4.55;4.00;;;20.90;96.70;;;;;;5102046;27;20131;-70
2023/05/31 04:35:45;;;;;;;3.20;2.90;;;20.90;96.70;;;;;;5098767;27;20044;-70
2023/05/31 04:38:16;;;;;;;5.97;4.07;;;20.90;96.70;;;;;;5096567;27;20483;-71
2023/05/31 04:40:44;;;;;;;7.40;4.00;;;20.90;96.70;;;;;;5098514;27;20048;-70
2023/05/31 04:43:12;;;;;;;5.35;3.47;;;21.00;96.70;;;;;;5098987;27;20044;-70
2023/05/31 04:45:41;;;;;;;5.85;4.13;;;21.10;96.70;;;;;;5100923;27;20051;-70
2023/05/31 04:48:10;;;;;;;7.60;4.10;;;21.10;96.70;;;;;;5098438;27;20086;-70
2023/05/31 04:50:38;;;;;;;6.70;3.83;;;21.20;96.70;;;;;;5098759;27;20109;-70
2023/05/31 04:53:06;;;;;;;6.50;4.18;;;21.30;96.70;;;;;;5082508;28;20163;-70
2023/05/31 04:55:34;;;;;;;6.75;4.32;;;21.30;96.70;;;;;;5101890;27;20051;-70
2023/05/31 04:58:08;;;;;;;4.65;4.15;;;21.40;96.70;;;;;;5082031;28;20371;-70
2023/05/31 05:00:37;;;;;;;6.10;4.18;;;21.40;96.70;;;;;;5096836;27;20153;-70
2023/05/31 05:03:24;;;;;;;5.78;3.88;;;21.30;96.70;;;;;;5095251;27;20043;-70
2023/05/31 05:05:52;;;;;;;6.88;4.57;;;21.40;96.70;;;;;;5097458;27;20032;-70
2023/05/31 05:08:20;;;;;;;6.13;4.03;;;21.40;96.70;;;;;;5098204;27;20448;-70
2023/05/31 05:10:49;;;;;;;7.95;4.13;;;21.40;96.70;;;;;;5087538;27;20052;-70
2023/05/31 05:13:17;;;;;;;9.02;4.05;;;21.50;96.70;;;;;;5098695;27;20054;-70
2023/05/31 05:15:47;;;;;;;6.68;4.30;;;21.50;96.70;;;;;;5082565;27;20056;-70
2023/05/31 05:18:15;;;;;;;4.65;3.97;;;21.60;96.70;;;;;;5100956;27;20051;-70
2023/05/31 05:20:44;;;;;;;6.20;3.85;;;21.60;96.70;;;;;;5104818;27;20472;-70
2023/05/31 05:23:15;;;;;;;5.47;3.90;;;21.50;96.70;;;;;;5100477;27;20035;-70
2023/05/31 05:25:42;;;;;;;6.28;4.63;;;21.60;96.70;;;;;;5081875;28;20040;-70
2023/05/31 05:28:11;;;;;;;5.97;3.75;;;21.60;96.70;;;;;;5098934;27;21336;-70
2023/05/31 05:30:40;;;;;;;6.65;4.25;;;21.70;96.70;;;;;;5105915;27;20579;-70
2023/05/31 05:33:08;;;;;;;8.68;4.25;;;21.80;96.70;;;;;;5105406;27;20112;-70
2023/05/31 05:35:36;;;;;;;8.13;4.68;;;21.90;96.70;;;;;;5110253;27;20035;-70
2023/05/31 05:38:06;;;;;;;8.25;4.45;;;21.90;96.70;;;;;;5098427;27;20067;-71
2023/05/31 05:40:34;;;;;;;8.90;4.95;;;21.90;96.70;;;;;;5086136;28;20097;-71
2023/05/31 05:43:02;;;;;;;6.13;4.30;;;21.90;96.70;;;;;;5099444;27;20042;-71
2023/05/31 05:45:35;;;;;;;10.27;4.78;;;21.90;96.70;;;;;;5108679;27;20043;-70
2023/05/31 05:48:03;;;;;;;7.88;3.90;;;21.90;96.70;;;;;;5104134;27;20111;-71
2023/05/31 05:50:33;;;;;;;8.18;4.63;;;22.00;96.70;;;;;;5106006;27;20080;-70
2023/05/31 05:53:01;;;;;;;6.15;3.75;;;22.00;96.70;;;;;;5101339;27;20138;-71
2023/05/31 05:55:33;;;;;;;8.30;4.40;;;22.10;96.70;;;;;;5095020;28;20051;-70
2023/05/31 05:58:02;;;;;;;5.75;3.83;;;22.30;96.70;;;;;;5102393;27;20130;-71
2023/05/31 06:00:50;;;;;;;8.70;4.28;;;22.30;96.70;;;;;;5080320;27;20052;-70
2023/05/31 06:03:19;;;;;;;8.52;4.45;;;22.40;96.70;;;;;;5119390;27;20058;-70
2023/05/31 06:05:48;;;;;;;8.27;4.22;;;22.50;96.70;;;;;;5095686;27;20035;-71
2023/05/31 06:08:18;;;;;;;6.03;4.00;;;22.60;96.70;;;;;;5102755;27;20044;-71
2023/05/31 06:10:47;;;;;;;8.10;5.03;;;22.60;96.70;;;;;;5107122;27;20036;-71
2023/05/31 06:13:15;;;;;;;8.07;4.35;;;22.70;96.70;;;;;;5109604;27;20059;-70
2023/05/31 06:15:44;;;;;;;22.83;4.90;;;22.70;96.70;;;;;;5098695;27;20043;-70
2023/05/31 06:18:14;;;;;;;8.23;4.93;;;22.70;96.70;;;;;;5095149;28;20139;-71
2023/05/31 06:20:44;;;;;;;7.07;5.03;;;22.80;96.70;;;;;;5116927;27;20063;-71
2023/05/31 06:23:12;;;;;;;7.68;4.40;;;22.80;96.70;;;;;;5088747;28;20048;-70
2023/05/31 06:25:41;;;;;;;7.00;4.93;;;22.80;96.70;;;;;;5110287;27;20032;-70
2023/05/31 06:28:11;;;;;;;5.97;4.45;;;22.90;96.70;;;;;;5086876;28;20067;-70
2023/05/31 06:30:42;;;;;;;6.15;4.13;;;23.00;96.70;;;;;;5100802;27;20071;-70
2023/05/31 06:33:09;;;;;;;5.28;3.97;;;23.00;96.70;;;;;;5097504;28;20097;-69
2023/05/31 06:35:39;;;;;;;5.78;3.70;;;23.10;96.70;;;;;;5103770;28;20047;-70
2023/05/31 06:38:08;;;;;;;4.85;3.63;;;23.20;96.70;;;;;;5111538;27;20536;-70
2023/05/31 06:40:38;;;;;;;6.28;3.40;;;23.20;96.70;;;;;;5119258;27;20043;-71
2023/05/31 06:43:06;;;;;;;5.07;3.25;;;23.30;96.70;;;;;;5114935;27;20039;-70
2023/05/31 06:45:53;;;;;;;3.67;3.37;;;23.40;96.70;;;;;;5113955;27;20053;-70
2023/05/31 06:48:21;;;;;;;4.10;3.70;;;23.40;96.70;;;;;;5113620;27;20289;-70
2023/05/31 06:51:08;;;;;;;5.15;3.55;;;23.40;96.70;;;;;;5101204;27;20847;-70
2023/05/31 06:53:54;;;;;;;4.00;3.60;;;23.50;96.70;;;;;;5114263;27;20185;-70
2023/05/31 06:56:27;;;;;;;5.78;3.45;;;23.60;96.70;;;;;;5102697;28;20076;-71
2023/05/31 06:58:56;;;;;;;4.13;3.30;;;23.60;96.70;;;;;;5107959;28;20043;-70
2023/05/31 07:01:26;;;;;;;6.53;3.22;;;23.70;96.70;;;;;;5115117;28;20142;-70
2023/05/31 07:03:54;;;;;;;3.88;3.50;;;23.70;96.70;;;;;;5117814;28;20051;-70
2023/05/31 07:06:22;;;;;;;3.50;3.20;;;23.70;96.70;;;;;;5114407;27;20035;-70
2023/05/31 07:08:51;;;;;;;3.90;3.50;;;23.70;96.70;;;;;;5123650;27;20039;-70
2023/05/31 07:11:28;;;;;;;7.15;3.88;;;23.80;96.70;;;;;;5116632;27;20054;-70
2023/05/31 07:14:01;;;;;;;7.13;3.58;;;23.80;96.70;;;;;;5123971;27;20050;-70
2023/05/31 07:16:31;;;;;;;4.22;3.22;;;23.80;96.70;;;;;;5118739;27;20039;-70
2023/05/31 07:18:59;;;;;;;4.85;3.33;;;23.90;96.70;;;;;;5114978;27;20035;-69
2023/05/31 07:21:27;;;;;;;7.93;3.90;;;23.90;96.70;;;;;;5109027;27;20043;-71
2023/05/31 07:23:55;;;;;;;7.60;3.65;;;24.00;96.70;;;;;;5119087;27;20403;-70
2023/05/31 07:26:23;;;;;;;4.10;3.58;;;24.00;96.70;;;;;;5121165;27;20042;-70
2023/05/31 07:28:54;;;;;;;4.40;3.60;;;24.10;96.70;;;;;;5113502;27;20547;-70
2023/05/31 07:31:22;;;;;;;4.38;3.42;;;24.10;96.70;;;;;;5107681;27;20381;-71
2023/05/31 07:33:52;;;;;;;3.60;3.25;;;24.20;96.70;;;;;;5108911;27;20541;-70
2023/05/31 07:36:20;;;;;;;4.70;3.63;;;24.20;96.70;;;;;;5115928;27;20051;-71
2023/05/31 07:38:48;;;;;;;4.53;3.67;;;24.30;96.70;;;;;;5110161;27;20040;-70
2023/05/31 07:41:16;;;;;;;4.72;3.67;;;24.40;96.70;;;;;;5120284;27;20070;-70
2023/05/31 07:43:45;;;;;;;5.35;3.72;;;24.50;96.70;;;;;;5090454;28;20694;-71
2023/05/31 07:46:13;;;;;;;5.22;4.18;;;24.50;96.70;;;;;;5114960;27;20043;-70
2023/05/31 07:48:41;;;;;;;5.07;3.55;;;24.50;96.70;;;;;;5101099;27;20126;-70
2023/05/31 07:51:10;;;;;;;4.55;3.38;;;24.50;96.70;;;;;;5122364;27;20062;-70
2023/05/31 07:53:39;;;;;;;4.38;3.97;;;24.50;96.70;;;;;;5113887;27;20529;-70
2023/05/31 07:56:07;;;;;;;5.78;3.90;;;24.50;96.70;;;;;;5105245;28;20497;-70
2023/05/31 07:58:36;;;;;;;5.63;3.60;;;24.50;96.70;;;;;;5114434;27;20119;-70
2023/05/31 08:01:04;;;;;;;6.90;4.50;;;24.60;96.70;;;;;;5116334;27;20532;-70
2023/05/31 08:03:32;;;;;;;4.28;3.30;;;24.60;96.70;;;;;;5113413;27;20055;-70
2023/05/31 08:06:01;;;;;;;5.82;4.10;;;24.70;96.70;;;;;;5104768;28;20065;-70
2023/05/31 08:08:32;;;;;;;5.57;3.72;;;24.70;96.70;;;;;;5105911;28;20040;-70
2023/05/31 08:11:00;;;;;;;4.65;3.90;;;24.80;96.70;;;;;;5106503;28;20339;-70
2023/05/31 08:13:29;;;;;;;4.18;3.42;;;24.90;96.70;;;;;;5105299;28;20054;-70
2023/05/31 08:15:57;;;;;;;5.35;3.70;;;25.00;96.70;;;;;;5107534;27;21629;-70
2023/05/31 08:18:24;;;;;;;4.82;3.90;;;25.00;96.70;;;;;;5122650;27;20924;-70
2023/05/31 08:20:52;;;;;;;7.80;3.85;;;25.20;96.70;;;;;;5117815;27;20055;-70
2023/05/31 08:23:21;;;;;;;4.75;3.97;;;25.30;96.70;;;;;;5121589;27;20039;-70
2023/05/31 08:25:52;;;;;;;5.38;4.18;;;25.30;96.70;;;;;;5115193;27;20090;-70
2023/05/31 08:28:20;;;;;;;4.32;3.47;;;25.50;96.70;;;;;;5103414;27;20047;-70
2023/05/31 08:30:48;;;;;;;5.60;3.45;;;25.60;96.70;;;;;;5106142;27;20067;-70
2023/05/31 08:33:17;;;;;;;3.40;3.05;;;25.50;96.70;;;;;;5104633;27;20523;-70
2023/05/31 08:35:45;;;;;;;3.83;3.40;;;25.50;96.70;;;;;;5119375;27;20096;-70
2023/05/31 08:38:13;;;;;;;6.53;3.90;;;25.60;96.70;;;;;;5115960;27;20040;-70
2023/05/31 08:40:42;;;;;;;3.90;3.50;;;25.70;96.70;;;;;;5105412;27;20081;-70
2023/05/31 08:43:15;;;;;;;4.05;3.08;;;25.70;96.70;;;;;;5104092;27;20082;-70
2023/05/31 08:45:44;;;;;;;4.72;3.70;;;25.70;96.70;;;;;;5113308;27;20047;-70
2023/05/31 08:48:17;;;;;;;4.32;3.63;;;25.70;96.70;;;;;;5118247;27;20031;-70
2023/05/31 08:50:46;;;;;;;4.57;3.70;;;25.60;96.70;;;;;;5121720;27;20150;-70
2023/05/31 08:53:34;;;;;;;4.18;3.80;;;25.60;96.70;;;;;;5122443;27;20138;-70
2023/05/31 08:56:04;;;;;;;4.97;3.45;;;25.70;96.70;;;;;;5100120;28;20469;-70
2023/05/31 08:58:35;;;;;;;4.65;3.80;;;25.80;96.70;;;;;;5101754;27;20142;-70
2023/05/31 09:01:04;;;;;;;4.15;3.33;;;25.80;96.70;;;;;;5122153;27;20123;-70
2023/05/31 09:03:32;;;;;;;6.03;3.22;;;25.80;96.70;;;;;;5112363;27;20461;-71
2023/05/31 09:06:00;;;;;;;3.85;3.38;;;25.80;96.70;;;;;;5115918;27;20043;-71
2023/05/31 09:08:33;;;;;;;5.00;3.78;;;25.80;96.70;;;;;;5123940;27;20046;-70
2023/05/31 09:11:02;;;;;;;5.60;3.33;;;25.90;96.70;;;;;;5123855;27;20046;-70
2023/05/31 09:13:30;;;;;;;3.58;3.20;;;25.90;96.70;;;;;;5103231;27;20044;-70
2023/05/31 09:16:00;;;;;;;3.63;3.30;;;25.90;96.70;;;;;;5095361;28;20044;-70
2023/05/31 09:18:36;;;;;;;6.90;3.83;;;25.90;96.70;;;;;;5105085;27;20466;-70
2023/05/31 09:21:08;;;;;;;4.03;3.60;;;25.90;96.70;;;;;;5115500;27;20047;-70
2023/05/31 09:23:36;;;;;;;7.82;3.80;;;26.10;96.70;;;;;;5115275;27;20039;-70
2023/05/31 09:26:07;;;;;;;5.20;3.60;;;26.10;96.70;;;;;;5102435;27;20047;-71
2023/05/31 09:28:35;;;;;;;4.38;3.50;;;26.30;96.70;;;;;;5103368;27;20350;-70
2023/05/31 09:31:06;;;;;;;4.10;3.70;;;26.20;96.70;;;;;;5111601;27;20492;-70
2023/05/31 09:33:39;;;;;;;4.90;3.60;;;26.30;96.70;;;;;;5117720;27;20676;-69
2023/05/31 09:36:07;;;;;;;4.30;3.90;;;26.40;96.70;;;;;;5113072;27;20071;-70
2023/05/31 09:38:36;;;;;;;4.63;3.70;;;26.30;96.70;;;;;;5105839;27;20039;-70
2023/05/31 09:41:14;;;;;;;4.93;3.97;;;26.40;96.70;;;;;;5104784;27;20071;-70
2023/05/31 09:43:43;;;;;;;4.57;3.67;;;26.50;96.70;;;;;;5105539;27;20040;-70
2023/05/31 09:46:13;;;;;;;5.30;3.42;;;26.70;96.70;;;;;;5113530;27;20579;-70
2023/05/31 09:48:42;;;;;;;8.27;4.03;;;26.50;96.70;;;;;;5112746;27;20519;-70
2023/05/31 09:51:11;;;;;;;4.63;3.47;;;26.60;96.70;;;;;;5119784;27;20077;-70
2023/05/31 09:53:44;;;;;;;3.72;3.10;;;26.80;96.70;;;;;;5117016;27;20084;-70
2023/05/31 09:56:17;;;;;;;5.07;3.78;;;26.90;96.70;;;;;;5121363;27;20051;-70
2023/05/31 09:58:45;;;;;;;4.10;3.42;;;27.00;96.70;;;;;;5119276;27;20524;-70
2023/05/31 10:01:15;;;;;;;4.00;3.17;;;27.10;96.70;;;;;;5102048;28;20072;-70
2023/05/31 10:03:44;;;;;;;4.82;3.88;;;27.00;96.70;;;;;;5107331;27;21180;-70
2023/05/31 10:06:15;;;;;;;3.92;3.40;;;26.90;96.70;;;;;;5104216;28;20039;-70
2023/05/31 10:08:44;;;;;;;5.18;3.58;;;26.80;96.70;;;;;;5104015;27;20130;-70
2023/05/31 10:11:16;;;;;;;5.18;4.03;;;26.90;96.70;;;;;;5102286;28;20043;-70
2023/05/31 10:13:46;;;;;;;4.85;3.20;;;27.20;96.70;;;;;;5103812;27;20493;-70
2023/05/31 10:16:19;;;;;;;4.93;3.35;;;27.10;96.70;;;;;;5115614;27;20114;-70
2023/05/31 10:18:50;;;;;;;3.80;3.45;;;27.20;96.70;;;;;;5117416;27;20067;-70
2023/05/31 10:21:25;;;;;;;3.90;3.60;;;27.40;96.70;;;;;;5104359;28;20054;-70
2023/05/31 10:23:57;;;;;;;3.83;3.40;;;27.60;96.70;;;;;;5094556;27;20074;-70
2023/05/31 10:26:35;;;;;;;3.30;3.00;;;27.60;96.70;;;;;;5118482;27;20046;-70
2023/05/31 10:29:10;;;;;;;4.20;3.60;;;27.80;96.70;;;;;;5118475;27;20434;-70
2023/05/31 10:31:49;;;;;;;4.78;3.80;;;28.00;96.70;;;;;;5122058;27;20496;-70
2023/05/31 10:34:21;;;;;;;4.30;3.35;;;28.00;96.70;;;;;;5103454;27;20048;-70
2023/05/31 10:36:51;;;;;;;4.53;3.78;;;28.10;96.70;;;;;;5117158;27;20045;-70
2023/05/31 10:39:27;;;;;;;3.13;2.85;;;28.40;96.70;;;;;;5114532;27;20485;-71
2023/05/31 10:42:14;;;;;;;3.30;3.00;;;28.60;96.70;;;;;;5109472;27;20047;-70
2023/05/31 10:44:47;;;;;;;4.97;3.70;;;28.80;96.70;;;;;;5107326;27;20111;-70
2023/05/31 10:47:24;;;;;;;3.92;3.50;;;28.60;96.70;;;;;;5113526;27;20412;-70
2023/05/31 10:49:54;;;;;;;3.88;3.47;;;28.50;96.70;;;;;;5094310;28;20052;-69
2023/05/31 10:52:28;;;;;;;4.15;3.30;;;28.60;96.70;;;;;;5101941;27;20058;-69
2023/05/31 10:55:18;;;;;;;4.03;3.50;;;28.80;96.70;;;;;;5113998;27;20448;-68
2023/05/31 10:57:51;;;;;;;5.15;3.75;;;28.80;96.70;;;;;;5105926;27;20698;-69
2023/05/31 11:00:23;;;;;;;4.78;3.08;;;28.80;96.70;;;;;;5091706;28;20201;-69
2023/05/31 11:02:56;;;;;;;3.80;3.33;;;29.00;96.70;;;;;;5108125;28;20544;-69
2023/05/31 11:05:27;;;;;;;4.45;2.85;;;29.10;96.70;;;;;;5110100;28;20047;-69
2023/05/31 11:07:57;;;;;;;3.45;3.15;;;29.10;96.70;;;;;;5111298;28;20088;-69
2023/05/31 11:10:26;;;;;;;3.78;3.15;;;29.40;96.70;;;;;;5120552;28;20672;-69
2023/05/31 11:12:57;;;;;;;4.10;3.40;;;29.60;96.70;;;;;;5119771;28;20141;-69
2023/05/31 11:15:39;;;;;;;4.30;3.25;;;29.40;96.70;;;;;;5122073;27;20048;-70
2023/05/31 11:18:12;;;;;;;5.93;3.47;;;29.50;96.70;;;;;;5108458;28;20040;-69
2023/05/31 11:20:41;;;;;;;4.55;3.45;;;29.20;96.70;;;;;;5094728;28;20062;-69
2023/05/31 11:23:27;;;;;;;6.68;3.80;;;29.00;96.70;;;;;;5102999;28;20039;-69
2023/05/31 11:26:18;;;;;;;4.05;3.53;;;28.70;96.70;;;;;;5101326;28;20044;-69
2023/05/31 11:28:57;;;;;;;4.50;3.45;;;28.50;96.70;;;;;;5110060;28;20397;-69
2023/05/31 11:31:59;;;;;;;6.15;3.50;;;28.40;96.70;;;;;;5114238;28;20566;-69
2023/05/31 11:34:30;;;;;;;5.57;3.83;;;28.50;96.70;;;;;;5098497;28;20114;-69
2023/05/31 11:37:00;;;;;;;3.22;2.92;;;28.60;96.70;;;;;;5112810;27;20039;-70
2023/05/31 11:39:29;;;;;;;4.43;3.90;;;28.80;96.70;;;;;;5118651;28;20430;-68
2023/05/31 11:41:57;;;;;;;3.55;3.17;;;28.60;96.70;;;;;;5101748;28;20166;-69
2023/05/31 11:44:30;;;;;;;3.60;3.08;;;28.20;96.70;;;;;;5120692;28;20129;-68
2023/05/31 11:47:03;;;;;;;5.93;3.90;;;27.90;96.70;;;;;;5095797;28;20096;-69
2023/05/31 11:49:33;;;;;;;4.25;2.95;;;27.80;96.70;;;;;;5117311;28;20043;-69
2023/05/31 11:52:02;;;;;;;3.67;3.20;;;27.50;96.70;;;;;;5107301;27;20414;-69
2023/05/31 11:54:32;;;;;;;4.47;3.10;;;27.30;96.70;;;;;;5103987;28;20059;-69
2023/05/31 11:57:02;;;;;;;4.75;3.10;;;27.30;96.70;;;;;;5104677;28;20055;-69
2023/05/31 11:59:34;;;;;;;5.13;3.42;;;27.60;96.70;;;;;;5117348;27;20192;-69
2023/05/31 12:02:04;;;;;;;4.68;4.15;;;27.90;96.70;;;;;;5123472;27;20051;-69
2023/05/31 12:04:37;;;;;;;4.93;3.45;;;28.30;96.70;;;;;;5111403;27;20032;-70
2023/05/31 12:07:07;;;;;;;4.82;3.20;;;28.60;96.70;;;;;;5107146;27;20047;-69
2023/05/31 12:09:35;;;;;;;4.88;3.42;;;28.80;96.70;;;;;;5098564;28;20071;-69
2023/05/31 12:12:07;;;;;;;4.80;3.53;;;28.70;96.70;;;;;;5120475;27;20067;-69
2023/05/31 12:14:35;;;;;;;5.22;3.30;;;28.90;96.70;;;;;;5118857;27;20039;-69
2023/05/31 12:17:04;;;;;;;4.30;3.30;;;29.00;96.70;;;;;;5121929;27;20043;-69
2023/05/31 12:19:36;;;;;;;5.78;3.50;;;29.10;96.70;;;;;;5115784;27;20054;-69
2023/05/31 12:22:05;;;;;;;4.05;3.35;;;29.30;96.70;;;;;;5123591;27;20035;-69
2023/05/31 12:24:33;;;;;;;4.75;4.25;;;29.30;96.70;;;;;;5093327;28;20043;-69
2023/05/31 12:27:02;;;;;;;5.97;3.47;;;29.10;96.70;;;;;;5105467;27;20067;-69
2023/05/31 12:29:31;;;;;;;6.63;3.47;;;28.90;96.70;;;;;;5114506;27;20047;-68
2023/05/31 12:32:04;;;;;;;4.07;3.58;;;28.70;96.70;;;;;;5123890;27;20045;-69
2023/05/31 12:34:36;;;;;;;5.50;3.20;;;28.50;96.70;;;;;;5112462;27;20154;-69
2023/05/31 12:37:06;;;;;;;3.55;3.25;;;28.40;96.70;;;;;;5115132;27;20051;-68
2023/05/31 12:39:34;;;;;;;3.75;2.97;;;28.40;96.70;;;;;;5123010;27;20035;-69
2023/05/31 12:42:03;;;;;;;3.78;3.38;;;28.50;96.70;;;;;;5114587;27;20421;-69
2023/05/31 12:44:32;;;;;;;5.80;3.20;;;28.40;96.70;;;;;;5114469;27;20050;-69
2023/05/31 12:47:01;;;;;;;4.72;3.08;;;28.30;96.70;;;;;;5113201;27;20039;-69
2023/05/31 12:49:30;;;;;;;6.55;3.20;;;28.30;96.70;;;;;;5119887;27;20127;-69
2023/05/31 12:52:04;;;;;;;6.32;3.83;;;28.30;96.70;;;;;;5116150;27;20095;-69
2023/05/31 12:54:33;;;;;;;3.38;3.08;;;28.30;96.70;;;;;;5092289;27;20043;-69
2023/05/31 12:57:02;;;;;;;4.78;3.55;;;28.30;96.70;;;;;;5095168;27;20404;-69
2023/05/31 12:59:31;;;;;;;4.00;3.53;;;28.30;96.70;;;;;;5103431;28;20055;-68
2023/05/31 13:02:00;;;;;;;5.10;3.58;;;28.20;96.70;;;;;;5103969;28;20047;-68
2023/05/31 13:04:28;;;;;;;4.07;3.28;;;28.10;96.70;;;;;;5095435;27;20044;-68
2023/05/31 13:06:59;;;;;;;6.40;3.20;;;28.10;96.70;;;;;;5094006;27;20144;-70